Time;durP1;ratioP1;P1;durP2;ratioP2;P2;SDS_P1;SDS_P2;PMS_P1;PMS_P2;Temp;Humidity;BMP_temperature;BMP_pressure;BME280_temperature;BME280_humidity;BME280_pressure;Samples;Min_cycle;Max_cycle;Signal;HPM_P1;HPM_P2
2022/10/31 00:00:06;;;;;;;30.73;15.93;;;;;;;13.66;90.44;102012.63;5063736;28;20047;-68
2022/10/31 00:02:32;;;;;;;31.42;15.48;;;;;;;13.65;90.73;102006.47;5063887;28;20040;-68
2022/10/31 00:04:57;;;;;;;31.98;16.42;;;;;;;13.64;90.73;102007.31;5062588;28;20285;-68
2022/10/31 00:07:22;;;;;;;32.75;16.27;;;;;;;13.62;90.80;102009.00;5062288;28;20056;-68
2022/10/31 00:09:48;;;;;;;31.17;15.93;;;;;;;13.61;90.40;102015.06;5062924;28;20028;-68
2022/10/31 00:12:13;;;;;;;30.90;15.88;;;;;;;13.58;89.82;102015.00;5063493;28;20029;-68
2022/10/31 00:14:38;;;;;;;29.00;15.15;;;;;;;13.57;89.56;102013.25;5062573;28;20049;-68
2022/10/31 00:17:03;;;;;;;30.98;16.30;;;;;;;13.54;90.89;102013.13;5062919;28;20036;-68
2022/10/31 00:19:29;;;;;;;33.90;16.85;;;;;;;13.48;91.59;102008.56;5062897;28;20066;-68
2022/10/31 00:21:54;;;;;;;33.00;16.75;;;;;;;13.43;91.59;102007.56;5062210;28;20075;-68
2022/10/31 00:24:20;;;;;;;33.13;16.60;;;;;;;13.41;91.95;102010.97;5062196;28;20246;-68
2022/10/31 00:26:45;;;;;;;31.92;16.63;;;;;;;13.39;91.93;102016.16;5060949;28;20087;-68
2022/10/31 00:29:10;;;;;;;28.85;16.73;;;;;;;13.36;91.05;102019.56;5061601;28;20021;-68
2022/10/31 00:31:35;;;;;;;34.70;17.48;;;;;;;13.36;91.26;102016.06;5062065;28;20287;-68
2022/10/31 00:34:02;;;;;;;33.95;17.13;;;;;;;13.33;91.61;102014.22;5061435;28;20128;-69
2022/10/31 00:36:28;;;;;;;34.40;16.45;;;;;;;13.36;91.16;102008.22;5078789;28;20031;-68
2022/10/31 00:38:53;;;;;;;33.85;16.73;;;;;;;13.31;89.87;102017.63;5062792;28;20028;-69
2022/10/31 00:41:18;;;;;;;32.03;17.23;;;;;;;13.25;89.30;102010.44;5062682;28;20037;-68
2022/10/31 00:43:44;;;;;;;29.55;15.93;;;;;;;13.19;89.68;102002.41;5062076;28;20151;-68
2022/10/31 00:46:10;;;;;;;33.75;17.42;;;;;;;13.16;89.87;102005.81;5062469;28;20100;-68
2022/10/31 00:48:36;;;;;;;30.90;16.73;;;;;;;13.15;90.62;101995.31;5062102;28;20083;-68
2022/10/31 00:51:01;;;;;;;29.00;15.80;;;;;;;13.14;91.20;101998.78;5062971;28;20021;-68
2022/10/31 00:53:26;;;;;;;33.45;17.05;;;;;;;13.13;91.00;101994.38;5061862;28;20171;-68
2022/10/31 00:55:52;;;;;;;32.28;17.05;;;;;;;13.11;90.70;101996.06;5062158;28;20164;-68
2022/10/31 00:58:17;;;;;;;33.95;17.75;;;;;;;13.09;90.45;101998.63;5062890;28;20048;-68
2022/10/31 01:00:43;;;;;;;31.70;16.77;;;;;;;13.08;90.36;101990.72;5062713;28;20053;-68
2022/10/31 01:03:08;;;;;;;35.22;16.60;;;;;;;13.04;90.32;102006.31;5061694;28;20036;-68
2022/10/31 01:05:33;;;;;;;27.70;15.52;;;;;;;13.00;90.06;102014.03;5062633;28;20049;-68
2022/10/31 01:07:59;;;;;;;33.67;16.83;;;;;;;12.97;90.16;102013.94;5062564;28;20075;-69
2022/10/31 01:10:24;;;;;;;28.50;16.13;;;;;;;12.96;91.47;102002.59;5062478;28;20040;-68
2022/10/31 01:12:49;;;;;;;30.05;16.02;;;;;;;12.95;91.74;101990.34;5061406;28;20064;-68
2022/10/31 01:15:21;;;;;;;30.65;15.45;;;;;;;12.92;91.36;101986.72;5062438;28;20273;-68
2022/10/31 01:17:47;;;;;;;28.92;16.58;;;;;;;12.84;90.73;101973.41;5062411;28;20063;-68
2022/10/31 01:20:14;;;;;;;30.20;18.73;;;;;;;12.78;89.94;101978.44;5062349;28;20024;-69
2022/10/31 01:22:39;;;;;;;32.45;17.60;;;;;;;12.72;90.10;101980.88;5062204;28;20025;-68
2022/10/31 01:25:06;;;;;;;33.50;18.35;;;;;;;12.66;90.48;101986.78;5062591;28;20036;-68
2022/10/31 01:27:32;;;;;;;32.70;18.30;;;;;;;12.62;90.42;101993.63;5062362;28;20044;-68
2022/10/31 01:29:57;;;;;;;34.08;19.08;;;;;;;12.60;90.46;101987.47;5062325;28;20052;-68
2022/10/31 01:32:23;;;;;;;34.33;19.35;;;;;;;12.58;90.31;101989.13;5061459;28;20075;-68
2022/10/31 01:34:48;;;;;;;35.53;18.35;;;;;;;12.58;90.47;101993.47;5061520;28;20100;-68
2022/10/31 01:37:14;;;;;;;34.28;17.50;;;;;;;12.54;90.47;101995.06;5060324;28;20032;-68
2022/10/31 01:39:39;;;;;;;31.65;17.73;;;;;;;12.52;90.34;102002.88;5060810;28;20059;-68
2022/10/31 01:42:04;;;;;;;29.65;16.90;;;;;;;12.53;91.13;102002.03;5062094;28;20098;-68
2022/10/31 01:44:29;;;;;;;31.35;17.40;;;;;;;12.55;91.59;101999.47;5063838;28;20033;-68
2022/10/31 01:46:59;;;;;;;29.53;16.30;;;;;;;12.54;91.56;102002.91;5063579;28;20317;-68
2022/10/31 01:49:45;;;;;;;30.10;15.80;;;;;;;12.53;92.02;101995.94;5065565;28;20306;-68
2022/10/31 01:52:18;;;;;;;25.35;14.70;;;;;;;12.49;91.85;101999.28;5055925;28;20059;-68
2022/10/31 01:54:59;;;;;;;27.33;14.15;;;;;;;12.45;91.59;102002.63;5066113;28;20025;-68
2022/10/31 01:57:25;;;;;;;22.33;12.35;;;;;;;12.38;91.48;101995.41;5065372;28;20263;-68
2022/10/31 01:59:55;;;;;;;23.85;14.55;;;;;;;12.33;91.15;102000.47;5066455;28;20017;-68
2022/10/31 02:02:20;;;;;;;26.90;15.07;;;;;;;12.30;90.67;102001.25;5065991;28;20044;-68
2022/10/31 02:04:47;;;;;;;24.38;14.75;;;;;;;12.24;89.87;101997.50;5065967;28;20103;-68
2022/10/31 02:07:25;;;;;;;27.92;14.27;;;;;;;12.16;89.92;101995.50;5064079;28;20032;-68
2022/10/31 02:09:52;;;;;;;33.03;16.38;;;;;;;12.12;89.95;101990.13;5065829;28;20025;-68
2022/10/31 02:12:17;;;;;;;29.65;15.18;;;;;;;12.09;90.01;101987.41;5065753;28;20044;-68
2022/10/31 02:14:43;;;;;;;27.70;15.88;;;;;;;12.08;90.26;101989.16;5065614;28;20016;-68
2022/10/31 02:17:08;;;;;;;30.23;14.88;;;;;;;12.09;90.06;101985.69;5065000;28;20040;-75
2022/10/31 02:19:49;;;;;;;23.70;12.88;;;;;;;12.03;89.40;101975.03;5065930;28;20047;-75
2022/10/31 02:22:59;;;;;;;23.52;13.50;;;;;;;12.00;89.69;101977.53;5065711;28;20060;-75
2022/10/31 02:25:56;;;;;;;24.70;14.25;;;;;;;11.99;89.33;101976.66;5051462;28;20041;-75
2022/10/31 02:28:34;;;;;;;27.05;15.02;;;;;;;11.96;89.53;101979.16;5054185;28;20040;-75
2022/10/31 02:31:02;;;;;;;24.10;14.68;;;;;;;11.94;89.34;101977.31;5065454;28;20021;-75
2022/10/31 02:33:42;;;;;;;25.48;14.00;;;;;;;11.91;89.32;101978.06;5065001;28;20045;-75
2022/10/31 02:36:24;;;;;;;27.60;14.93;;;;;;;11.88;89.35;101974.44;5064592;28;20255;-75
2022/10/31 02:39:06;;;;;;;28.02;14.68;;;;;;;11.86;89.47;101987.47;5065699;28;20036;-75
2022/10/31 02:41:45;;;;;;;25.20;14.30;;;;;;;11.82;89.47;101978.59;5054639;28;20028;-75
2022/10/31 02:44:28;;;;;;;23.58;13.13;;;;;;;11.78;89.08;101978.44;5065125;28;20060;-75
2022/10/31 02:46:59;;;;;;;22.67;13.77;;;;;;;11.73;88.50;101983.50;5064777;28;20075;-75
2022/10/31 02:49:38;;;;;;;26.13;14.38;;;;;;;11.67;88.29;101980.63;5061159;28;20017;-75
2022/10/31 02:52:14;;;;;;;21.30;12.98;;;;;;;11.60;88.89;101974.31;5061860;28;20120;-76
2022/10/31 02:54:39;;;;;;;21.88;13.00;;;;;;;11.46;88.70;101965.94;5063914;28;20032;-75
2022/10/31 02:57:07;;;;;;;21.98;13.25;;;;;;;11.36;89.78;101970.78;5064261;28;20074;-75
2022/10/31 02:59:36;;;;;;;23.42;13.55;;;;;;;11.30;90.25;101985.34;5062435;28;20031;-75
2022/10/31 03:02:33;;;;;;;21.85;13.77;;;;;;;11.30;90.30;101974.03;5064997;28;20156;-75
2022/10/31 03:05:21;;;;;;;35.25;18.80;;;;;;;11.29;90.90;101986.16;5064852;28;20017;-75
2022/10/31 03:08:17;;;;;;;36.05;17.83;;;;;;;11.31;91.23;101984.53;5064030;28;20037;-75
2022/10/31 03:11:01;;;;;;;30.13;14.98;;;;;;;11.32;90.92;101974.97;5064807;28;20062;-75
2022/10/31 03:13:32;;;;;;;27.63;15.82;;;;;;;11.30;91.01;101980.13;5064474;28;20031;-75
2022/10/31 03:16:14;;;;;;;30.85;15.85;;;;;;;11.29;91.10;101982.69;5064121;28;20032;-75
2022/10/31 03:18:52;;;;;;;28.38;15.52;;;;;;;11.28;91.16;101984.41;5060021;28;20029;-68
2022/10/31 03:21:29;;;;;;;26.58;14.68;;;;;;;11.29;91.27;101983.56;5061664;28;20028;-68
2022/10/31 03:23:56;;;;;;;23.27;13.80;;;;;;;11.33;91.25;101983.72;5064423;28;20028;-68
2022/10/31 03:26:24;;;;;;;24.10;12.40;;;;;;;11.33;90.81;101975.88;5064274;28;20021;-68
2022/10/31 03:28:56;;;;;;;19.58;12.70;;;;;;;11.29;90.64;101972.25;5063464;28;20037;-68
2022/10/31 03:31:28;;;;;;;21.77;12.75;;;;;;;11.23;90.61;101977.22;5064300;28;20062;-68
2022/10/31 03:33:56;;;;;;;24.27;13.82;;;;;;;11.19;91.03;101988.38;5062525;28;20052;-69
2022/10/31 03:36:22;;;;;;;23.33;13.13;;;;;;;11.16;90.75;101973.47;5064202;28;20028;-68
2022/10/31 03:38:48;;;;;;;26.25;14.35;;;;;;;11.14;90.80;101980.38;5063133;28;20076;-68
2022/10/31 03:41:20;;;;;;;24.52;13.98;;;;;;;11.14;90.85;101977.75;5064201;28;20030;-68
2022/10/31 03:43:56;;;;;;;24.48;13.40;;;;;;;11.14;91.04;101977.75;5064121;28;20086;-68
2022/10/31 03:46:22;;;;;;;25.48;14.45;;;;;;;11.14;91.12;101977.75;5064067;28;20024;-75
2022/10/31 03:48:48;;;;;;;24.80;14.32;;;;;;;11.12;90.72;101974.19;5063156;28;20036;-75
2022/10/31 03:51:16;;;;;;;25.02;13.40;;;;;;;11.12;90.45;101977.69;5063631;28;20135;-75
2022/10/31 03:53:54;;;;;;;23.73;13.55;;;;;;;11.13;90.85;101976.84;5063536;28;20153;-75
2022/10/31 03:56:29;;;;;;;24.50;13.10;;;;;;;11.12;90.37;101972.47;5063059;28;20104;-75
2022/10/31 03:59:03;;;;;;;22.83;12.45;;;;;;;11.07;91.45;101970.53;5062001;28;20021;-75
2022/10/31 04:01:32;;;;;;;22.75;12.95;;;;;;;11.03;91.13;101966.00;5061795;28;20294;-75
2022/10/31 04:03:58;;;;;;;21.17;12.88;;;;;;;11.01;91.06;101965.03;5061803;28;20040;-76
2022/10/31 04:06:24;;;;;;;21.70;12.23;;;;;;;10.98;91.71;101962.31;5062938;28;20035;-75
2022/10/31 04:09:00;;;;;;;22.95;13.43;;;;;;;10.96;91.48;101971.00;5062931;28;20033;-75
2022/10/31 04:11:31;;;;;;;24.48;13.20;;;;;;;10.96;91.83;101968.38;5064706;28;20187;-75
2022/10/31 04:13:57;;;;;;;23.38;13.57;;;;;;;10.97;91.43;101971.88;5063493;28;20032;-75
2022/10/31 04:16:24;;;;;;;24.70;13.98;;;;;;;10.98;91.82;101975.34;5063451;28;20211;-75
2022/10/31 04:18:50;;;;;;;29.05;14.85;;;;;;;10.94;91.40;101979.56;5062575;28;20029;-75
2022/10/31 04:21:16;;;;;;;28.20;15.55;;;;;;;10.93;91.31;101973.47;5062935;28;20295;-75
2022/10/31 04:23:41;;;;;;;25.95;14.65;;;;;;;10.91;91.83;101977.72;5063028;28;20210;-75
2022/10/31 04:26:10;;;;;;;21.73;13.20;;;;;;;10.92;91.82;101984.72;5062102;28;20317;-75
2022/10/31 04:28:35;;;;;;;22.98;13.13;;;;;;;10.93;91.32;101973.47;5063065;28;20188;-75
2022/10/31 04:31:00;;;;;;;21.60;12.55;;;;;;;10.92;91.84;101973.38;5063247;28;20024;-75
2022/10/31 04:33:26;;;;;;;20.90;12.25;;;;;;;10.92;91.84;101973.38;5062079;28;20041;-75
2022/10/31 04:35:51;;;;;;;23.58;13.13;;;;;;;10.91;91.64;101976.84;5063307;28;20036;-75
2022/10/31 04:38:16;;;;;;;22.95;13.10;;;;;;;10.90;92.06;101980.28;5062990;28;20106;-75
2022/10/31 04:40:41;;;;;;;24.20;13.35;;;;;;;10.89;92.01;101983.69;5062933;28;20032;-75
2022/10/31 04:43:07;;;;;;;23.65;14.05;;;;;;;10.88;92.53;101982.81;5062340;28;20222;-75
2022/10/31 04:45:32;;;;;;;27.02;15.10;;;;;;;10.89;92.72;101978.47;5063121;28;20060;-75
2022/10/31 04:47:57;;;;;;;24.52;13.75;;;;;;;10.90;93.33;101978.53;5063378;28;20214;-68
2022/10/31 04:50:22;;;;;;;23.75;13.85;;;;;;;10.88;93.51;101972.38;5063408;28;20032;-68
2022/10/31 04:52:48;;;;;;;24.52;13.93;;;;;;;10.89;92.97;101979.38;5061858;28;20330;-68
2022/10/31 04:55:13;;;;;;;22.92;12.45;;;;;;;10.87;92.31;101975.81;5062345;28;20210;-68
2022/10/31 04:57:43;;;;;;;24.42;13.02;;;;;;;10.83;91.61;101973.91;5062744;28;20047;-68
2022/10/31 05:00:10;;;;;;;22.77;12.60;;;;;;;10.79;91.73;101975.50;5062947;28;20021;-68
2022/10/31 05:02:43;;;;;;;20.00;12.02;;;;;;;10.77;92.09;101978.88;5062654;28;20075;-68
2022/10/31 05:05:08;;;;;;;25.38;12.63;;;;;;;10.75;92.01;101972.72;5051072;28;20073;-68
2022/10/31 05:07:38;;;;;;;25.90;13.73;;;;;;;10.73;92.30;101966.53;5062775;28;20275;-68
2022/10/31 05:10:03;;;;;;;25.38;14.40;;;;;;;10.71;92.40;101963.00;5063213;28;20048;-68
2022/10/31 05:12:29;;;;;;;25.80;14.93;;;;;;;10.71;92.72;101968.19;5062773;28;20275;-68
2022/10/31 05:14:54;;;;;;;25.83;14.75;;;;;;;10.70;92.20;101956.91;5077332;28;20083;-68
2022/10/31 05:17:19;;;;;;;28.88;16.10;;;;;;;10.69;91.92;101964.63;5062702;28;20088;-75
2022/10/31 05:19:44;;;;;;;25.35;14.48;;;;;;;10.66;91.88;101956.69;5062557;28;20036;-75
2022/10/31 05:22:10;;;;;;;24.02;13.90;;;;;;;10.64;91.77;101955.75;5062804;28;20041;-75
2022/10/31 05:24:35;;;;;;;24.75;13.15;;;;;;;10.58;92.55;101962.47;5061635;28;20053;-75
2022/10/31 05:27:01;;;;;;;20.63;13.20;;;;;;;10.54;93.95;101955.38;5062353;28;20021;-76
2022/10/31 05:29:26;;;;;;;18.75;11.85;;;;;;;10.50;93.69;101963.88;5060657;28;20052;-75
2022/10/31 05:31:51;;;;;;;21.13;12.93;;;;;;;10.49;93.14;101956.88;5062234;28;20088;-75
2022/10/31 05:34:16;;;;;;;26.33;13.38;;;;;;;10.48;92.78;101949.88;5062653;28;20041;-75
2022/10/31 05:36:43;;;;;;;23.63;13.02;;;;;;;10.49;92.45;101954.28;5062317;28;20068;-75
2022/10/31 05:39:08;;;;;;;28.50;15.57;;;;;;;10.48;92.74;101955.09;5060863;28;20041;-75
2022/10/31 05:41:33;;;;;;;25.92;14.40;;;;;;;10.47;92.46;101953.34;5061669;28;20097;-75
2022/10/31 05:43:59;;;;;;;28.45;15.27;;;;;;;10.48;92.71;101960.31;5062244;28;20021;-75
2022/10/31 05:46:24;;;;;;;26.00;13.88;;;;;;;10.44;93.09;101937.56;5061677;28;20036;-68
2022/10/31 05:48:49;;;;;;;29.00;15.27;;;;;;;10.43;92.99;101949.69;5062110;28;20143;-68
2022/10/31 05:51:14;;;;;;;27.73;15.70;;;;;;;10.43;92.98;101948.81;5062057;28;20025;-68
2022/10/31 05:53:40;;;;;;;27.10;14.63;;;;;;;10.42;92.62;101949.63;5061990;28;20028;-68
2022/10/31 05:56:05;;;;;;;25.35;14.63;;;;;;;10.40;92.27;101941.75;5061363;28;20330;-68
2022/10/31 05:58:30;;;;;;;27.20;14.77;;;;;;;10.39;92.41;101937.38;5061681;28;20055;-68
2022/10/31 06:00:55;;;;;;;24.30;13.68;;;;;;;10.40;92.58;101940.88;5060931;28;20017;-68
2022/10/31 06:03:21;;;;;;;24.98;15.52;;;;;;;10.39;92.13;101934.75;5061903;28;20045;-68
2022/10/31 06:05:46;;;;;;;29.27;15.25;;;;;;;10.39;91.97;101939.09;5061954;28;20029;-68
2022/10/31 06:08:11;;;;;;;26.85;15.07;;;;;;;10.40;92.10;101930.47;5062349;28;20272;-68
2022/10/31 06:10:37;;;;;;;25.45;15.48;;;;;;;10.38;92.17;101927.75;5061109;28;20112;-68
2022/10/31 06:13:02;;;;;;;29.33;14.90;;;;;;;10.41;92.12;101932.22;5061912;28;20327;-68
2022/10/31 06:15:27;;;;;;;24.83;13.82;;;;;;;10.40;92.22;101926.13;5061845;28;20024;-69
2022/10/31 06:18:04;;;;;;;26.25;15.45;;;;;;;10.39;92.97;101928.66;5061933;28;20049;-68
2022/10/31 06:20:30;;;;;;;25.98;15.38;;;;;;;10.36;93.14;101934.63;5060618;28;20029;-68
2022/10/31 06:22:55;;;;;;;28.10;15.00;;;;;;;10.35;92.98;101929.34;5061369;28;20032;-68
2022/10/31 06:25:20;;;;;;;23.35;14.20;;;;;;;10.36;92.57;101931.16;5061631;28;20025;-68
2022/10/31 06:27:46;;;;;;;26.42;15.27;;;;;;;10.34;92.27;101931.09;5061862;28;20025;-68
2022/10/31 06:30:12;;;;;;;24.25;14.15;;;;;;;10.33;92.04;101928.38;5065011;28;20601;-69
2022/10/31 06:32:37;;;;;;;23.77;14.85;;;;;;;10.30;92.10;101931.75;5064425;28;20283;-68
2022/10/31 06:35:02;;;;;;;23.65;14.60;;;;;;;10.30;92.32;101938.66;5065379;28;20033;-68
2022/10/31 06:37:28;;;;;;;25.48;14.70;;;;;;;10.27;92.34;101934.22;5065312;28;20130;-68
2022/10/31 06:39:53;;;;;;;23.73;13.75;;;;;;;10.26;92.79;101941.13;5065402;28;20025;-68
2022/10/31 06:42:18;;;;;;;20.77;13.00;;;;;;;10.26;92.65;101948.06;5064343;28;20041;-68
2022/10/31 06:44:43;;;;;;;24.15;13.43;;;;;;;10.25;92.79;101944.59;5065358;28;20185;-68
2022/10/31 06:47:09;;;;;;;20.75;12.95;;;;;;;10.24;93.02;101945.41;5065117;28;20025;-75
2022/10/31 06:49:34;;;;;;;19.92;12.27;;;;;;;10.19;93.02;101933.88;5065342;28;20295;-75
2022/10/31 06:51:59;;;;;;;23.05;13.57;;;;;;;10.15;93.12;101931.97;5063460;28;20120;-75
2022/10/31 06:54:25;;;;;;;22.40;13.70;;;;;;;10.18;93.04;101941.63;5080484;28;20037;-75
2022/10/31 06:56:50;;;;;;;24.63;14.35;;;;;;;10.16;93.25;101936.34;5064968;28;20021;-75
2022/10/31 06:59:15;;;;;;;22.73;14.10;;;;;;;10.16;93.28;101935.47;5063628;28;20215;-75
2022/10/31 07:01:41;;;;;;;20.17;12.60;;;;;;;10.15;93.37;101937.16;5062801;28;20025;-76
2022/10/31 07:04:10;;;;;;;21.90;13.07;;;;;;;10.16;93.83;101933.75;5063296;28;20032;-75
2022/10/31 07:06:35;;;;;;;20.67;13.38;;;;;;;10.16;93.95;101936.34;5064761;28;20036;-75
2022/10/31 07:09:00;;;;;;;21.10;13.48;;;;;;;10.17;94.29;101934.66;5064718;28;20040;-75
2022/10/31 07:11:26;;;;;;;21.60;13.48;;;;;;;10.18;94.81;101936.41;5063868;28;20345;-76
2022/10/31 07:13:51;;;;;;;22.67;14.85;;;;;;;10.17;94.99;101930.34;5062924;28;20259;-76
2022/10/31 07:16:16;;;;;;;23.40;14.20;;;;;;;10.22;95.11;101935.72;5064550;28;20028;-76
2022/10/31 07:18:42;;;;;;;23.90;14.35;;;;;;;10.24;95.24;101934.09;5062996;28;20321;-75
2022/10/31 07:21:07;;;;;;;25.73;14.70;;;;;;;10.29;95.69;101934.28;5064542;28;20218;-75
2022/10/31 07:23:32;;;;;;;23.83;15.15;;;;;;;10.32;96.01;101934.41;5064661;28;20044;-75
2022/10/31 07:25:59;;;;;;;23.75;15.15;;;;;;;10.35;96.04;101937.19;5064484;28;20036;-75
2022/10/31 07:28:25;;;;;;;24.58;15.38;;;;;;;10.40;96.18;101933.06;5062729;28;20325;-75
2022/10/31 07:30:52;;;;;;;23.02;14.65;;;;;;;10.43;95.78;101941.00;5064301;28;20283;-75
2022/10/31 07:33:17;;;;;;;21.70;14.13;;;;;;;10.46;95.70;101943.72;5063987;28;20084;-75
2022/10/31 07:35:42;;;;;;;20.10;13.57;;;;;;;10.52;95.66;101950.91;5064365;28;20032;-75
2022/10/31 07:38:12;;;;;;;22.52;14.77;;;;;;;10.54;95.67;101952.78;5063432;28;20049;-75
2022/10/31 07:40:38;;;;;;;28.10;16.35;;;;;;;10.59;95.49;101948.63;5063315;28;20299;-75
2022/10/31 07:43:04;;;;;;;27.23;16.63;;;;;;;10.63;95.84;101948.75;5064232;28;20017;-75
2022/10/31 07:45:30;;;;;;;27.60;17.08;;;;;;;10.66;95.89;101946.25;5064050;28;20024;-75
2022/10/31 07:47:55;;;;;;;27.77;17.05;;;;;;;10.68;96.49;101937.69;5062686;28;20045;-75
2022/10/31 07:50:23;;;;;;;27.88;18.27;;;;;;;10.71;96.36;101947.34;5062454;28;20017;-75
2022/10/31 07:52:58;;;;;;;27.90;17.08;;;;;;;10.73;96.41;101946.59;5063221;28;20301;-75
2022/10/31 07:55:23;;;;;;;29.70;18.02;;;;;;;10.75;96.59;101955.34;5063849;28;20040;-76
2022/10/31 07:57:59;;;;;;;29.00;18.25;;;;;;;10.78;96.89;101949.38;5063887;28;20841;-75
2022/10/31 08:00:25;;;;;;;30.40;18.83;;;;;;;10.81;97.00;101952.09;5062606;28;20183;-75
2022/10/31 08:03:02;;;;;;;30.90;19.70;;;;;;;10.85;97.36;101954.00;5063767;28;20033;-75
2022/10/31 08:05:28;;;;;;;36.78;22.15;;;;;;;10.91;97.61;101954.25;5062081;28;20028;-75
2022/10/31 08:07:53;;;;;;;35.55;21.33;;;;;;;10.96;97.87;101947.53;5061227;28;20029;-75
2022/10/31 08:10:19;;;;;;;39.38;22.90;;;;;;;11.02;97.72;101956.41;5059827;28;20152;-76
2022/10/31 08:12:44;;;;;;;38.88;22.90;;;;;;;11.08;98.54;101957.53;5060522;28;20072;-76
2022/10/31 08:15:09;;;;;;;38.30;22.73;;;;;;;11.13;98.09;101952.50;5057397;28;20024;-76
2022/10/31 08:17:36;;;;;;;43.97;23.88;;;;;;;11.21;98.62;101958.00;5058685;28;20036;-68
2022/10/31 08:20:02;;;;;;;43.75;24.38;;;;;;;11.28;99.17;101957.41;5058683;28;20025;-68
2022/10/31 08:22:27;;;;;;;42.22;24.10;;;;;;;11.35;99.23;101951.59;5062189;28;20020;-68
2022/10/31 08:24:53;;;;;;;47.35;25.70;;;;;;;11.41;99.07;101943.13;5062558;28;20068;-68
2022/10/31 08:27:18;;;;;;;46.90;25.40;;;;;;;11.46;100.00;101933.75;5061395;28;20021;-68
2022/10/31 08:29:43;;;;;;;49.58;25.58;;;;;;;11.51;99.59;101939.13;5060536;28;20020;-68
2022/10/31 08:32:08;;;;;;;48.90;27.40;;;;;;;11.58;100.00;101942.03;5060067;28;20037;-68
2022/10/31 08:34:34;;;;;;;62.30;31.13;;;;;;;11.68;100.00;101964.16;5061998;28;20064;-68
2022/10/31 08:36:59;;;;;;;68.13;34.67;;;;;;;11.79;100.00;101951.50;5061846;28;20085;-68
2022/10/31 08:39:24;;;;;;;63.72;33.72;;;;;;;11.91;100.00;101949.31;5062556;28;20291;-68
2022/10/31 08:41:50;;;;;;;67.28;35.13;;;;;;;12.00;100.00;101947.06;5061990;28;20029;-68
2022/10/31 08:44:15;;;;;;;75.72;36.80;;;;;;;12.09;100.00;101927.31;5060689;28;20079;-68
2022/10/31 08:46:41;;;;;;;77.20;37.15;;;;;;;12.13;100.00;101909.19;5061694;28;20099;-68
2022/10/31 08:49:06;;;;;;;81.72;37.28;;;;;;;12.18;100.00;101885.84;5059411;28;20206;-68
2022/10/31 08:51:31;;;;;;;77.72;35.42;;;;;;;12.19;100.00;101900.69;5063418;28;20045;-68
2022/10/31 08:53:57;;;;;;;74.13;35.72;;;;;;;12.22;100.00;101897.28;5062258;28;20024;-68
2022/10/31 08:56:22;;;;;;;74.80;35.40;;;;;;;12.24;100.00;101888.66;5061192;28;20051;-68
2022/10/31 08:58:48;;;;;;;75.95;34.97;;;;;;;12.28;100.00;101895.78;5062133;28;20346;-68
2022/10/31 09:01:13;;;;;;;77.00;36.75;;;;;;;12.31;100.00;101913.25;5076192;28;20025;-68
2022/10/31 09:03:38;;;;;;;75.63;35.33;;;;;;;12.35;100.00;101921.28;5058994;28;20078;-68
2022/10/31 09:06:08;;;;;;;82.68;35.85;;;;;;;12.39;100.00;101914.41;5061271;28;20051;-68
2022/10/31 09:08:34;;;;;;;82.15;37.05;;;;;;;12.44;100.00;101911.94;5061317;28;20049;-68
2022/10/31 09:10:59;;;;;;;83.30;37.30;;;;;;;12.48;100.00;101908.59;5060113;28;20179;-68
2022/10/31 09:13:25;;;;;;;82.00;36.80;;;;;;;12.53;100.00;101907.03;5061402;28;20035;-68
2022/10/31 09:15:50;;;;;;;83.25;37.72;;;;;;;12.58;100.00;101915.91;5061093;28;20032;-68
2022/10/31 09:18:17;;;;;;;78.53;36.25;;;;;;;12.62;100.00;101917.78;5061899;28;20041;-68
2022/10/31 09:20:44;;;;;;;87.43;37.25;;;;;;;12.66;100.00;101930.13;5061176;28;20029;-68
2022/10/31 09:23:12;;;;;;;89.80;37.40;;;;;;;12.72;100.00;101918.09;5059469;28;20039;-68
2022/10/31 09:25:38;;;;;;;85.85;38.88;;;;;;;12.78;100.00;101893.00;5056753;28;20056;-68
2022/10/31 09:28:05;;;;;;;91.97;38.15;;;;;;;12.81;100.00;101887.00;5059944;28;20036;-75
2022/10/31 09:30:33;;;;;;;84.45;36.10;;;;;;;12.87;100.00;101876.72;5059599;28;20032;-76
2022/10/31 09:33:00;;;;;;;86.38;37.00;;;;;;;12.91;100.00;101878.59;5056521;28;20612;-76
2022/10/31 09:35:26;;;;;;;89.68;38.45;;;;;;;12.97;100.00;101867.44;5059076;28;20041;-75
2022/10/31 09:38:00;;;;;;;88.15;39.88;;;;;;;13.03;100.00;101855.44;5060571;28;20049;-75
2022/10/31 09:40:34;;;;;;;92.53;39.33;;;;;;;13.08;100.00;101849.41;5055188;28;20021;-75
2022/10/31 09:43:32;;;;;;;87.82;38.08;;;;;;;13.11;100.00;101833.84;5057023;28;20082;-75
2022/10/31 09:45:57;;;;;;;98.23;39.10;;;;;;;13.12;100.00;101840.81;5038214;28;20082;-75
2022/10/31 09:49:07;;;;;;;96.38;39.67;;;;;;;13.16;100.00;101853.16;5053444;28;20029;-76
2022/10/31 09:51:40;;;;;;;99.38;40.13;;;;;;;13.21;100.00;101864.66;5057739;28;20036;-75
2022/10/31 09:54:32;;;;;;;95.28;40.10;;;;;;;13.26;100.00;101860.44;5060904;28;20160;-76
2022/10/31 09:57:00;;;;;;;97.00;40.58;;;;;;;13.32;100.00;101857.09;5059448;28;20044;-66
2022/10/31 09:59:33;;;;;;;96.57;40.53;;;;;;;13.34;100.00;101842.34;5062157;28;20055;-66
2022/10/31 10:02:06;;;;;;;103.32;41.92;;;;;;;13.36;100.00;101859.88;5061724;28;20051;-66
2022/10/31 10:04:34;;;;;;;92.80;41.53;;;;;;;13.39;100.00;101856.47;5063154;28;20060;-66
2022/10/31 10:07:05;;;;;;;98.75;41.45;;;;;;;13.42;100.00;101837.34;5065258;28;20036;-66
2022/10/31 10:09:30;;;;;;;108.30;42.92;;;;;;;13.44;100.00;101833.94;5063970;28;20029;-66
2022/10/31 10:12:16;;;;;;;104.05;44.00;;;;;;;13.49;100.00;101820.97;5064946;28;20032;-66
2022/10/31 10:14:54;;;;;;;102.80;43.20;;;;;;;13.54;100.00;101815.00;5065374;28;20331;-66
2022/10/31 10:17:42;;;;;;;105.30;42.72;;;;;;;13.63;100.00;101819.63;5065540;28;20054;-66
2022/10/31 10:20:28;;;;;;;106.37;42.67;;;;;;;13.70;100.00;101821.53;5064078;28;20098;-66
2022/10/31 10:23:08;;;;;;;103.35;42.45;;;;;;;13.77;100.00;101808.59;5063670;28;20127;-66
2022/10/31 10:25:42;;;;;;;107.85;42.78;;;;;;;13.84;100.00;101808.78;5064322;28;20096;-66
2022/10/31 10:28:38;;;;;;;107.72;44.53;;;;;;;13.90;100.00;101800.19;5063401;28;20017;-66
2022/10/31 10:31:22;;;;;;;117.28;44.03;;;;;;;13.93;100.00;101786.31;5080516;28;20033;-66
2022/10/31 10:33:55;;;;;;;113.57;43.60;;;;;;;13.96;100.00;101774.19;5064800;28;20063;-66
2022/10/31 10:36:55;;;;;;;105.97;43.50;;;;;;;14.00;100.00;101782.97;5064802;28;20033;-75
2022/10/31 10:39:25;;;;;;;99.45;42.38;;;;;;;14.03;100.00;101797.06;5061313;28;20073;-76
2022/10/31 10:47:40;;;;;;;120.60;45.22;;;;;;;14.21;100.00;101795.75;5060565;28;20099;-75
2022/10/31 10:50:19;;;;;;;112.20;45.83;;;;;;;14.26;100.00;101809.81;5053687;28;20036;-76
2022/10/31 10:53:03;;;;;;;118.82;46.97;;;;;;;14.30;100.00;101790.69;5064705;28;20184;-76
2022/10/31 10:55:39;;;;;;;112.72;47.03;;;;;;;14.36;100.00;101793.47;5063711;28;20032;-75
2022/10/31 10:58:09;;;;;;;111.85;47.65;;;;;;;14.41;100.00;101773.50;5051414;28;20102;-75
2022/10/31 11:00:41;;;;;;;118.82;49.33;;;;;;;14.48;100.00;101782.34;5064882;28;20028;-75
2022/10/31 11:03:08;;;;;;;113.85;47.28;;;;;;;14.52;100.00;101764.97;5055064;28;20098;-76
2022/10/31 11:05:53;;;;;;;115.53;47.05;;;;;;;14.58;100.00;101771.25;5062176;28;20095;-75
2022/10/31 11:08:33;;;;;;;109.55;47.63;;;;;;;14.62;100.00;101780.09;5054420;28;20073;-66
2022/10/31 11:11:25;;;;;;;124.88;48.42;;;;;;;14.67;100.00;101780.19;5064331;28;20020;-66
2022/10/31 11:13:56;;;;;;;115.38;47.58;;;;;;;14.75;100.00;101779.50;5064858;28;20025;-66
2022/10/31 11:16:30;;;;;;;118.72;48.03;;;;;;;14.84;100.00;101770.94;5053454;28;20028;-66
2022/10/31 11:19:08;;;;;;;116.38;48.08;;;;;;;14.89;100.00;101771.94;5063827;28;20298;-66
2022/10/31 11:21:34;;;;;;;125.80;48.70;;;;;;;14.94;100.00;101767.63;5064712;28;20084;-66